Overview Statistics Trail Chart Weather Telemetry Raw packets
 

This is the latest recevied weather packets stored in our database for station/object VE3TEJ. If no packets are shown the sender has not sent any weather packets the latest 10 day(s).

<< 119 120 121 122 123 124 125 >>
Time Temp. Humidity Pressure Rain* Wind** Luminosity Snow
1787856156 23.33° C 66% 1018.9 hPa 0 mm - - -
1787855856 23.33° C 67% 1019 hPa 0 mm - - -
1787855556 23.33° C 66% 1018.9 hPa 0 mm - - -
1787855255 23.89° C 68% 1018.8 hPa 0 mm - - -
1787854955 23.33° C 67% 1018.9 hPa 0 mm - - -
1787854657 23.33° C 66% 1018.8 hPa 0 mm - - -
1787854357 23.33° C 68% 1019 hPa 0 mm - - -
1787854056 23.33° C 68% 1018.8 hPa 0 mm - - -
1787853756 24.44° C 65% 1018.9 hPa 0 mm - - -
1787853456 24.44° C 64% 1018.7 hPa 0 mm - - -
1787853155 25.56° C 63% 1018.6 hPa 0 mm - - -
1787852855 23.89° C 65% 1018.8 hPa 0 mm - - -
1787852557 23.33° C 68% 1018.8 hPa 0 mm - - -
1787852257 23.33° C 67% 1018.8 hPa 0 mm - - -
1787851956 23.89° C 66% 1018.8 hPa 0 mm - - -
1787851656 25° C 65% 1018.8 hPa 0 mm - - -
1787851356 23.89° C 65% 1018.8 hPa 0 mm - - -
1787851055 23.33° C 68% 1018.8 hPa 0 mm - - -
1787850755 22.78° C 69% 1018.7 hPa 0 mm - - -
1787850456 23.33° C 67% 1018.6 hPa 0 mm - - -
1787850156 25° C 66% 1018.8 hPa 0 mm - - -
1787849856 25.56° C 63% 1018.8 hPa 0 mm - - -
1787849557 25° C 65% 1018.8 hPa 0 mm - - -
1787849256 24.44° C 66% 1018.7 hPa 0 mm - - -
1787848956 23.33° C 65% 1018.7 hPa 0 mm - - -

* Rain latest hour (hover to see other rain measurements)
** Current wind speed in m/s (hover to see current wind gust speed)